Time;durP1;ratioP1;P1;durP2;ratioP2;P2;SDS_P1;SDS_P2;PMS_P1;PMS_P2;Temp;Humidity;BMP_temperature;BMP_pressure;BME280_temperature;BME280_humidity;BME280_pressure;Samples;Min_cycle;Max_cycle;Signal;HPM_P1;HPM_P2
2022/08/18 00:01:12;;;;;;;9.27;4.03;;;26.80;96.70;;;;;;4950138;28;20053;-79
2022/08/18 00:03:43;;;;;;;8.82;3.80;;;26.70;96.70;;;;;;4965680;28;20077;-78
2022/08/18 00:06:27;;;;;;;8.73;3.78;;;26.70;96.70;;;;;;4965129;28;20533;-78
2022/08/18 00:08:58;;;;;;;11.43;3.88;;;26.80;96.70;;;;;;4943993;28;20504;-80
2022/08/18 00:11:27;;;;;;;11.10;4.05;;;26.80;96.70;;;;;;4960584;28;20505;-79
2022/08/18 00:14:11;;;;;;;10.88;3.78;;;26.90;96.70;;;;;;4953721;28;20055;-80
2022/08/18 00:16:52;;;;;;;12.27;4.60;;;26.80;96.70;;;;;;4964569;28;20047;-79
2022/08/18 00:19:22;;;;;;;11.38;4.22;;;26.80;96.70;;;;;;4955949;28;20043;-80
2022/08/18 00:22:14;;;;;;;9.63;3.92;;;26.80;96.70;;;;;;4961901;28;20146;-79
2022/08/18 00:24:43;;;;;;;14.55;4.47;;;26.80;96.70;;;;;;4956757;28;20450;-78
2022/08/18 00:27:20;;;;;;;14.25;4.25;;;26.80;96.70;;;;;;4956359;28;20049;-79
2022/08/18 00:29:53;;;;;;;12.20;4.13;;;26.90;96.70;;;;;;4950532;28;20043;-79
2022/08/18 00:32:24;;;;;;;7.28;3.75;;;26.80;96.70;;;;;;4956622;28;20097;-79
2022/08/18 00:34:54;;;;;;;11.85;4.22;;;26.80;96.70;;;;;;4949929;28;20054;-79
2022/08/18 00:37:23;;;;;;;10.27;4.00;;;26.80;96.70;;;;;;4964640;28;20050;-79
2022/08/18 00:39:51;;;;;;;7.50;3.72;;;26.80;96.70;;;;;;4961804;28;20046;-79
2022/08/18 00:42:23;;;;;;;9.65;3.67;;;26.70;96.70;;;;;;4957786;28;20126;-79
2022/08/18 00:45:00;;;;;;;9.38;3.47;;;26.60;96.70;;;;;;4956847;28;20110;-79
2022/08/18 00:47:28;;;;;;;11.68;3.78;;;26.70;96.70;;;;;;4965995;28;20500;-79
2022/08/18 00:50:22;;;;;;;15.32;4.30;;;26.70;96.70;;;;;;4954311;28;20054;-79
2022/08/18 00:52:57;;;;;;;11.90;4.47;;;26.70;96.70;;;;;;4964750;28;20118;-79
2022/08/18 00:55:28;;;;;;;14.05;3.72;;;26.60;96.70;;;;;;4941539;28;20058;-79
2022/08/18 00:58:03;;;;;;;12.32;3.85;;;26.60;96.70;;;;;;4950123;28;20390;-79
2022/08/18 01:00:31;;;;;;;8.63;4.00;;;26.70;96.70;;;;;;4963838;28;20126;-79
2022/08/18 01:03:06;;;;;;;9.95;3.80;;;26.80;96.70;;;;;;4949890;28;20047;-79
2022/08/18 01:05:42;;;;;;;9.30;3.60;;;26.90;96.70;;;;;;4952382;28;20074;-78
2022/08/18 01:08:14;;;;;;;10.98;4.00;;;26.80;96.70;;;;;;4952600;28;20051;-79
2022/08/18 01:10:44;;;;;;;9.60;3.78;;;26.80;96.70;;;;;;4961821;28;20070;-79
2022/08/18 01:13:12;;;;;;;11.68;4.43;;;26.80;96.70;;;;;;4959432;28;20405;-80
2022/08/18 01:15:40;;;;;;;8.23;3.72;;;26.90;96.70;;;;;;4961739;28;20046;-79
2022/08/18 01:24:03;;;;;;;12.18;4.05;;;26.90;96.70;;;;;;4960329;28;20406;-79
2022/08/18 01:26:45;;;;;;;11.45;4.22;;;26.80;96.70;;;;;;4951290;28;20138;-84
2022/08/18 01:29:13;;;;;;;10.27;4.05;;;26.70;96.70;;;;;;4961070;28;20118;-82
2022/08/18 01:31:53;;;;;;;11.05;3.50;;;26.50;96.70;;;;;;4952058;28;20142;-83
2022/08/18 01:34:25;;;;;;;7.05;3.28;;;26.40;96.70;;;;;;4956335;28;20114;-84
2022/08/18 01:36:54;;;;;;;8.05;4.28;;;26.50;96.70;;;;;;4966977;28;20057;-83
2022/08/18 01:39:24;;;;;;;9.45;3.63;;;26.60;96.70;;;;;;4967046;28;20400;-83
2022/08/18 01:42:15;;;;;;;8.18;3.65;;;26.50;96.70;;;;;;4959513;28;20130;-83
2022/08/18 01:44:44;;;;;;;9.68;3.60;;;26.70;96.70;;;;;;4958443;28;20133;-83
2022/08/18 01:47:12;;;;;;;10.43;3.83;;;26.70;96.70;;;;;;4942665;28;20047;-83
2022/08/18 01:49:41;;;;;;;10.68;3.40;;;26.80;96.70;;;;;;4939253;29;20094;-82
2022/08/18 01:52:16;;;;;;;8.02;3.28;;;26.80;96.70;;;;;;4951898;28;20047;-81
2022/08/18 01:54:46;;;;;;;14.93;4.45;;;26.90;96.70;;;;;;4961564;28;20047;-83
2022/08/18 01:57:16;;;;;;;8.32;3.10;;;26.90;96.70;;;;;;4958010;28;20497;-81
2022/08/18 01:59:45;;;;;;;12.27;3.90;;;26.80;96.70;;;;;;4958275;28;20044;-83
2022/08/18 02:02:16;;;;;;;10.80;3.63;;;26.80;96.70;;;;;;4956684;28;20044;-83
2022/08/18 02:04:46;;;;;;;11.55;3.95;;;26.80;96.70;;;;;;4956351;28;20050;-81
2022/08/18 02:07:14;;;;;;;9.75;3.83;;;26.90;96.70;;;;;;4962033;28;20049;-81
2022/08/18 02:09:46;;;;;;;11.52;3.50;;;26.90;96.70;;;;;;4956071;28;20134;-82
2022/08/18 02:12:17;;;;;;;10.38;3.95;;;26.70;96.70;;;;;;4943880;28;20102;-82
2022/08/18 02:14:46;;;;;;;10.45;3.70;;;26.60;96.70;;;;;;4950184;28;20047;-83
2022/08/18 02:17:14;;;;;;;10.70;3.75;;;26.60;96.70;;;;;;4949210;28;20532;-82
2022/08/18 02:19:43;;;;;;;10.10;4.30;;;26.60;96.70;;;;;;4957449;28;20046;-81
2022/08/18 02:22:13;;;;;;;12.70;4.28;;;26.60;96.70;;;;;;4965866;28;20142;-83
2022/08/18 02:24:42;;;;;;;9.43;3.95;;;26.60;96.70;;;;;;4959802;28;20885;-83
2022/08/18 02:27:13;;;;;;;7.32;3.88;;;26.60;96.70;;;;;;4961035;28;20054;-83
2022/08/18 02:29:41;;;;;;;8.15;4.28;;;26.60;96.70;;;;;;4954906;28;20077;-82
2022/08/18 02:32:09;;;;;;;8.55;3.45;;;26.50;96.70;;;;;;4957912;28;20047;-83
2022/08/18 02:34:38;;;;;;;11.35;3.85;;;26.50;96.70;;;;;;4966170;28;20051;-83
2022/08/18 02:37:06;;;;;;;12.38;3.80;;;26.50;96.70;;;;;;4958621;28;20101;-83
2022/08/18 02:39:38;;;;;;;11.55;4.13;;;26.40;96.70;;;;;;4968154;28;20035;-84
2022/08/18 02:42:08;;;;;;;11.07;4.43;;;26.40;96.70;;;;;;4958830;28;20098;-83
2022/08/18 02:44:37;;;;;;;10.95;4.00;;;26.40;96.70;;;;;;4967016;28;20046;-83
2022/08/18 02:47:06;;;;;;;9.90;4.90;;;26.40;96.70;;;;;;4952376;28;20679;-84
2022/08/18 02:49:35;;;;;;;9.98;4.50;;;26.40;96.70;;;;;;4963411;28;20118;-84
2022/08/18 02:52:04;;;;;;;11.70;3.97;;;26.40;96.70;;;;;;4958368;28;20086;-84
2022/08/18 02:54:33;;;;;;;12.40;4.45;;;26.20;96.70;;;;;;4963849;28;20057;-85
2022/08/18 02:57:06;;;;;;;10.98;4.90;;;26.20;96.70;;;;;;4958629;28;20073;-84
2022/08/18 02:59:37;;;;;;;10.95;4.15;;;26.10;96.70;;;;;;4966089;28;20126;-84
2022/08/18 03:02:09;;;;;;;8.93;4.10;;;26.20;96.70;;;;;;4967382;28;20086;-83
2022/08/18 03:04:37;;;;;;;7.25;4.15;;;26.20;96.70;;;;;;4962817;28;20089;-84
2022/08/18 03:07:06;;;;;;;14.82;5.50;;;26.20;96.70;;;;;;4941024;28;20509;-84
2022/08/18 03:09:35;;;;;;;8.75;3.95;;;26.20;96.70;;;;;;4958374;28;20055;-84
2022/08/18 03:12:04;;;;;;;8.98;4.35;;;26.10;96.70;;;;;;4948094;29;20054;-83
2022/08/18 03:14:34;;;;;;;11.63;4.13;;;26.30;96.70;;;;;;4960212;28;20047;-83
2022/08/18 03:17:07;;;;;;;13.73;4.35;;;26.30;96.70;;;;;;4954271;28;20043;-84
2022/08/18 03:19:37;;;;;;;9.05;4.10;;;26.30;96.70;;;;;;4966557;28;20055;-84
2022/08/18 03:22:07;;;;;;;10.63;4.18;;;26.30;96.70;;;;;;4959071;28;20497;-85
2022/08/18 03:24:56;;;;;;;11.15;4.43;;;26.20;96.70;;;;;;4966081;28;20487;-82
2022/08/18 03:27:24;;;;;;;13.45;4.53;;;26.20;96.70;;;;;;4958813;28;20086;-85
2022/08/18 03:29:52;;;;;;;7.75;4.40;;;26.20;96.70;;;;;;4958298;28;20047;-82
2022/08/18 03:32:22;;;;;;;6.60;4.38;;;26.20;96.70;;;;;;4966991;28;20081;-83
2022/08/18 03:34:50;;;;;;;9.68;3.95;;;26.20;96.70;;;;;;4971628;28;20055;-84
2022/08/18 03:37:18;;;;;;;10.95;4.68;;;26.20;96.70;;;;;;4961633;28;20043;-84
2022/08/18 03:39:50;;;;;;;13.02;4.70;;;26.20;96.70;;;;;;4966769;28;20051;-84
2022/08/18 03:42:18;;;;;;;14.15;4.50;;;26.20;96.70;;;;;;4952482;28;20053;-84
2022/08/18 03:44:46;;;;;;;11.25;4.13;;;26.20;96.70;;;;;;4945461;28;20502;-84
2022/08/18 03:47:16;;;;;;;13.00;4.65;;;26.10;96.70;;;;;;4959883;28;20046;-83
2022/08/18 03:49:45;;;;;;;9.18;4.60;;;26.00;96.70;;;;;;4962048;28;20141;-83
2022/08/18 03:52:14;;;;;;;8.55;4.40;;;26.00;96.70;;;;;;4964033;28;20114;-84
2022/08/18 03:54:42;;;;;;;9.70;4.78;;;26.00;96.70;;;;;;4955149;28;20405;-84
2022/08/18 03:57:11;;;;;;;10.05;3.85;;;25.90;96.70;;;;;;4966331;28;20687;-84
2022/08/18 03:59:42;;;;;;;8.98;4.85;;;25.90;96.70;;;;;;4945087;28;20809;-85
2022/08/18 04:02:11;;;;;;;8.82;4.50;;;25.90;96.70;;;;;;4966295;28;20052;-84
2022/08/18 04:04:39;;;;;;;9.82;4.25;;;26.00;96.70;;;;;;4936566;29;20043;-83
2022/08/18 04:07:16;;;;;;;11.18;4.38;;;26.00;96.70;;;;;;4966424;28;20141;-83
2022/08/18 04:09:44;;;;;;;11.43;4.28;;;26.00;96.70;;;;;;4962414;28;20489;-84
2022/08/18 04:12:14;;;;;;;9.98;4.20;;;26.00;96.70;;;;;;4955823;28;20055;-83
2022/08/18 04:14:46;;;;;;;8.98;3.58;;;26.00;96.70;;;;;;4936034;28;20047;-83
2022/08/18 04:17:16;;;;;;;9.70;4.85;;;25.90;96.70;;;;;;4966280;28;20098;-84
2022/08/18 04:19:44;;;;;;;10.23;4.38;;;25.90;96.70;;;;;;4952214;28;20039;-83
2022/08/18 04:22:15;;;;;;;10.25;4.75;;;25.80;96.70;;;;;;4960231;28;20051;-83
2022/08/18 04:24:45;;;;;;;11.48;4.40;;;25.70;96.70;;;;;;4969046;28;20047;-83
2022/08/18 04:27:17;;;;;;;11.95;4.28;;;25.80;96.70;;;;;;4943337;28;20517;-84
2022/08/18 04:29:45;;;;;;;9.50;4.38;;;25.80;96.70;;;;;;4963712;28;20043;-82
2022/08/18 04:32:14;;;;;;;10.18;4.53;;;25.80;96.70;;;;;;4965027;28;20057;-82
2022/08/18 04:34:41;;;;;;;8.50;3.90;;;25.80;96.70;;;;;;4960018;28;20039;-83
2022/08/18 04:37:10;;;;;;;10.57;5.18;;;25.70;96.70;;;;;;4958620;28;20066;-83
2022/08/18 04:39:40;;;;;;;12.40;4.88;;;25.70;96.70;;;;;;4955055;28;20055;-83
2022/08/18 04:42:08;;;;;;;9.23;4.43;;;25.70;96.70;;;;;;4951745;28;20047;-84
2022/08/18 04:44:36;;;;;;;11.02;4.43;;;25.70;96.70;;;;;;4968391;28;20174;-83
2022/08/18 04:47:08;;;;;;;9.63;4.05;;;25.70;96.70;;;;;;4960712;28;20155;-83
2022/08/18 04:49:37;;;;;;;9.70;4.30;;;25.70;96.70;;;;;;4951840;28;20054;-83
2022/08/18 04:55:10;;;;;;;9.38;4.32;;;25.80;96.70;;;;;;4966177;28;20039;-84
2022/08/18 04:57:38;;;;;;;11.43;4.32;;;25.70;96.70;;;;;;4939343;28;20051;-84
2022/08/18 05:00:09;;;;;;;10.38;4.40;;;25.60;96.70;;;;;;4961720;28;20141;-83
2022/08/18 05:02:38;;;;;;;11.07;4.10;;;25.60;96.70;;;;;;4962749;28;20058;-84
2022/08/18 05:05:07;;;;;;;12.50;4.18;;;25.70;96.70;;;;;;4958688;28;20134;-83
2022/08/18 05:07:35;;;;;;;121.15;78.70;;;25.70;96.70;;;;;;4959625;28;20118;-84
2022/08/18 05:10:04;;;;;;;43.15;28.45;;;25.70;96.70;;;;;;4957383;28;20509;-79
2022/08/18 05:12:35;;;;;;;52.45;32.95;;;25.70;96.70;;;;;;4952263;28;20473;-84
2022/08/18 05:15:05;;;;;;;22.92;13.77;;;25.70;96.70;;;;;;4968091;28;20046;-82
2022/08/18 05:17:38;;;;;;;25.40;14.75;;;25.70;96.70;;;;;;4949580;28;20102;-80
2022/08/18 05:20:08;;;;;;;21.73;11.82;;;25.70;96.70;;;;;;4965294;28;20101;-82
2022/08/18 05:22:38;;;;;;;16.25;9.90;;;25.80;96.70;;;;;;4951015;28;20094;-83
2022/08/18 05:25:07;;;;;;;13.15;7.03;;;25.90;96.70;;;;;;4941854;28;20055;-79
2022/08/18 05:27:39;;;;;;;12.50;6.20;;;26.00;96.70;;;;;;4961482;28;20078;-81
2022/08/18 05:30:08;;;;;;;12.75;5.93;;;26.10;96.70;;;;;;4951207;28;20047;-84
2022/08/18 05:32:40;;;;;;;28.20;17.85;;;26.20;96.70;;;;;;4965981;28;20050;-80
2022/08/18 05:35:22;;;;;;;25.67;19.50;;;26.20;96.70;;;;;;4953602;28;20131;-78
2022/08/18 05:38:14;;;;;;;22.15;14.20;;;26.20;96.70;;;;;;4960804;28;20039;-79
2022/08/18 05:40:44;;;;;;;15.93;10.80;;;26.30;96.70;;;;;;4920613;28;20125;-78
2022/08/18 05:43:16;;;;;;;12.07;7.45;;;26.30;96.70;;;;;;4961247;28;20125;-76
2022/08/18 05:45:46;;;;;;;12.40;6.25;;;26.40;96.70;;;;;;4963858;28;20050;-78
2022/08/18 05:48:15;;;;;;;10.38;5.18;;;26.40;96.70;;;;;;4948012;28;20078;-79
2022/08/18 05:50:43;;;;;;;11.00;4.13;;;26.30;96.70;;;;;;4954783;28;20067;-77
2022/08/18 05:53:15;;;;;;;9.77;4.55;;;26.30;96.70;;;;;;4955021;28;21065;-80
2022/08/18 05:58:48;;;;;;;11.73;4.57;;;26.50;96.70;;;;;;4960148;28;20109;-82
2022/08/18 06:01:22;;;;;;;10.40;4.50;;;26.50;96.70;;;;;;4956354;28;20099;-78
2022/08/18 06:03:54;;;;;;;15.70;5.07;;;26.50;96.70;;;;;;4961142;28;20302;-86
2022/08/18 06:06:26;;;;;;;8.80;4.88;;;26.60;96.70;;;;;;4964040;28;20070;-82
2022/08/18 06:09:02;;;;;;;10.32;5.05;;;26.60;96.70;;;;;;4965559;28;20074;-90
2022/08/18 06:11:31;;;;;;;9.50;3.80;;;26.70;96.70;;;;;;4954803;28;20424;-82
2022/08/18 06:14:01;;;;;;;10.75;4.22;;;26.70;96.70;;;;;;4952817;28;20047;-84
2022/08/18 06:16:41;;;;;;;11.35;4.30;;;26.70;96.70;;;;;;4961084;28;20061;-81
2022/08/18 06:19:25;;;;;;;12.55;4.13;;;26.80;96.70;;;;;;4948967;28;20056;-81
2022/08/18 06:22:00;;;;;;;9.05;4.05;;;26.80;96.70;;;;;;4964155;28;20043;-78
2022/08/18 06:24:34;;;;;;;11.95;4.10;;;26.80;96.70;;;;;;4963173;28;20066;-80
2022/08/18 06:27:10;;;;;;;9.75;3.90;;;26.90;96.70;;;;;;4959511;28;20663;-77
2022/08/18 06:29:55;;;;;;;18.90;13.38;;;26.90;96.70;;;;;;4959799;28;20055;-78
2022/08/18 06:32:40;;;;;;;10.35;7.05;;;27.00;96.70;;;;;;4942850;28;20054;-77
2022/08/18 06:35:21;;;;;;;13.77;6.47;;;27.00;96.70;;;;;;4956057;28;20082;-80
2022/08/18 06:40:46;;;;;;;11.23;4.35;;;27.00;96.70;;;;;;4955763;28;20055;-79
2022/08/18 06:43:16;;;;;;;9.73;4.57;;;27.00;96.70;;;;;;4948548;28;20049;-83
2022/08/18 06:45:51;;;;;;;13.25;4.47;;;27.10;96.70;;;;;;4956062;28;20052;-84
2022/08/18 06:48:30;;;;;;;10.85;4.60;;;27.00;96.70;;;;;;4957200;28;20440;-85
2022/08/18 06:51:00;;;;;;;11.52;4.38;;;26.90;96.70;;;;;;4964661;28;20214;-85
2022/08/18 06:53:51;;;;;;;14.32;4.47;;;26.90;96.70;;;;;;4952205;28;20065;-79
2022/08/18 06:56:23;;;;;;;7.80;4.47;;;26.90;96.70;;;;;;4960449;28;20133;-77
2022/08/18 06:58:54;;;;;;;9.93;4.40;;;27.00;96.70;;;;;;4931090;28;20048;-82
2022/08/18 07:01:24;;;;;;;8.18;4.40;;;27.10;96.70;;;;;;4956433;28;20134;-81
2022/08/18 07:03:55;;;;;;;9.98;4.05;;;27.20;96.70;;;;;;4964442;28;20047;-82
2022/08/18 07:06:29;;;;;;;8.27;4.45;;;27.20;96.70;;;;;;4954261;28;20090;-78
2022/08/18 07:09:17;;;;;;;10.75;4.28;;;27.30;96.70;;;;;;4962695;28;20102;-79
2022/08/18 07:11:59;;;;;;;10.32;4.50;;;27.40;96.70;;;;;;4955572;28;20059;-80
2022/08/18 07:14:27;;;;;;;10.05;4.35;;;27.40;96.70;;;;;;4954459;28;20048;-83
2022/08/18 07:17:23;;;;;;;10.90;4.47;;;27.40;96.70;;;;;;4971086;28;20046;-82
2022/08/18 07:20:19;;;;;;;10.20;3.97;;;27.50;96.70;;;;;;4966742;28;20043;-80
2022/08/18 07:22:53;;;;;;;9.05;4.32;;;27.50;96.70;;;;;;4958971;28;20058;-81
2022/08/18 07:25:24;;;;;;;11.07;4.30;;;27.50;96.70;;;;;;4960088;28;20130;-82
2022/08/18 07:27:55;;;;;;;9.57;4.57;;;27.50;96.70;;;;;;4965054;28;20047;-84
2022/08/18 07:30:31;;;;;;;10.10;4.38;;;27.50;96.70;;;;;;4966919;28;20039;-83
2022/08/18 07:33:08;;;;;;;8.77;4.50;;;27.50;96.70;;;;;;4968021;28;20043;-80
2022/08/18 07:35:41;;;;;;;10.32;4.55;;;27.50;96.70;;;;;;4962900;28;20051;-83
2022/08/18 07:38:16;;;;;;;9.80;4.78;;;27.50;96.70;;;;;;4957971;28;20138;-77
2022/08/18 07:41:13;;;;;;;12.65;7.60;;;27.50;96.70;;;;;;4951118;28;20039;-79
2022/08/18 07:43:52;;;;;;;15.88;8.93;;;27.50;96.70;;;;;;4947274;28;20079;-77
2022/08/18 07:46:25;;;;;;;14.98;6.38;;;27.50;96.70;;;;;;4957095;28;20047;-76
2022/08/18 07:48:57;;;;;;;12.25;7.00;;;27.50;96.70;;;;;;4960129;28;20464;-79
2022/08/18 07:51:42;;;;;;;13.95;7.90;;;27.50;96.70;;;;;;4948959;28;20047;-78
2022/08/18 07:54:21;;;;;;;14.67;9.17;;;27.30;96.70;;;;;;4961651;28;20054;-80
2022/08/18 07:57:20;;;;;;;13.93;6.82;;;27.20;96.70;;;;;;4950458;28;20287;-82
2022/08/18 07:59:57;;;;;;;17.80;5.93;;;27.00;96.70;;;;;;4956955;28;20480;-81
2022/08/18 08:02:38;;;;;;;14.77;4.88;;;27.00;96.70;;;;;;4963542;28;20072;-81
2022/08/18 08:05:16;;;;;;;11.60;4.57;;;26.90;96.70;;;;;;4957378;28;20045;-80
2022/08/18 08:07:49;;;;;;;12.30;4.30;;;26.90;96.70;;;;;;4963758;28;20043;-82
2022/08/18 08:10:31;;;;;;;11.48;4.60;;;26.90;96.70;;;;;;4958533;28;20090;-77
2022/08/18 08:13:15;;;;;;;11.60;4.55;;;26.90;96.70;;;;;;4954638;28;20126;-80
2022/08/18 08:16:15;;;;;;;10.48;4.15;;;26.90;96.70;;;;;;4965404;28;20039;-80
2022/08/18 08:18:53;;;;;;;8.75;4.57;;;26.80;96.70;;;;;;4960695;28;20051;-81
2022/08/18 08:21:29;;;;;;;13.35;5.07;;;26.80;96.70;;;;;;4965645;28;20453;-80
2022/08/18 08:24:10;;;;;;;18.70;7.78;;;26.70;96.70;;;;;;4947189;28;20150;-80
2022/08/18 08:26:48;;;;;;;16.05;9.45;;;26.50;96.70;;;;;;4959886;28;20075;-80
2022/08/18 08:29:25;;;;;;;10.57;5.53;;;26.60;96.70;;;;;;4956158;28;20095;-84
2022/08/18 08:32:00;;;;;;;17.65;5.68;;;26.50;96.70;;;;;;4955148;28;20064;-82
2022/08/18 13:10:33;;;;;;;4.35;1.00;;;28.70;96.70;;;;;;5055808;28;20424;-80
2022/08/18 13:13:13;;;;;;;4.25;1.25;;;29.10;96.70;;;;;;5038981;28;20049;-82
2022/08/18 13:15:42;;;;;;;3.92;1.00;;;29.40;96.70;;;;;;5030771;28;20083;-79
2022/08/18 13:18:25;;;;;;;5.45;1.65;;;29.60;96.70;;;;;;5030564;28;20080;-79
2022/08/18 13:20:56;;;;;;;5.32;1.17;;;29.80;96.70;;;;;;5032599;28;20560;-79
2022/08/18 13:23:26;;;;;;;3.25;0.93;;;29.80;96.70;;;;;;5046845;28;20037;-86
2022/08/18 13:25:58;;;;;;;4.72;1.20;;;29.70;96.70;;;;;;5043164;28;20041;-80
2022/08/18 13:28:31;;;;;;;4.93;1.13;;;29.60;96.70;;;;;;5028581;28;20060;-80
2022/08/18 13:31:16;;;;;;;4.18;0.85;;;29.60;96.70;;;;;;5026115;28;20453;-78
2022/08/18 13:33:45;;;;;;;3.92;1.13;;;29.70;96.70;;;;;;5033227;28;20090;-80
2022/08/18 13:36:43;;;;;;;4.25;1.13;;;30.00;96.70;;;;;;5045444;28;20043;-80
2022/08/18 13:39:16;;;;;;;3.88;1.05;;;30.50;96.70;;;;;;5031008;28;20531;-79
2022/08/18 13:41:53;;;;;;;3.28;1.02;;;30.60;96.70;;;;;;5017944;28;20045;-80
2022/08/18 13:44:27;;;;;;;4.13;1.33;;;30.60;96.70;;;;;;5043389;28;20045;-85
2022/08/18 13:46:57;;;;;;;4.25;1.60;;;30.30;96.70;;;;;;5028270;28;20067;-83
2022/08/18 13:49:25;;;;;;;3.90;1.00;;;30.10;96.70;;;;;;5018728;28;20139;-80
2022/08/18 13:52:01;;;;;;;4.95;1.30;;;30.20;96.70;;;;;;5026307;28;20099;-83
2022/08/18 13:54:33;;;;;;;5.00;1.15;;;30.60;96.70;;;;;;5026624;28;20045;-83
2022/08/18 13:57:05;;;;;;;2.75;0.88;;;30.60;96.70;;;;;;5026355;28;20057;-90
2022/08/18 13:59:34;;;;;;;3.40;1.08;;;30.60;96.70;;;;;;5045202;28;20095;-84
2022/08/18 14:02:07;;;;;;;3.88;1.13;;;31.20;96.70;;;;;;5027099;28;20045;-84
2022/08/18 14:04:37;;;;;;;4.10;0.93;;;31.40;96.70;;;;;;5026627;28;20049;-86
2022/08/18 14:07:08;;;;;;;3.75;1.13;;;31.60;96.70;;;;;;5010592;28;20148;-84
2022/08/18 14:09:39;;;;;;;7.25;1.27;;;31.80;96.70;;;;;;5008225;28;20053;-89
2022/08/18 14:12:19;;;;;;;3.75;1.25;;;31.70;96.70;;;;;;5026706;28;20044;-80
2022/08/18 14:14:52;;;;;;;5.72;1.35;;;31.70;96.70;;;;;;5021265;28;20558;-80
2022/08/18 14:17:23;;;;;;;3.95;0.90;;;31.90;96.70;;;;;;5043749;28;20131;-87
2022/08/18 14:28:29;;;;;;;4.88;1.10;;;32.40;96.70;;;;;;5020531;28;20049;-87
2022/08/18 14:30:59;;;;;;;4.30;1.25;;;32.80;96.70;;;;;;5044450;28;20099;-86
2022/08/18 14:33:29;;;;;;;2.72;0.82;;;33.10;96.70;;;;;;5051351;28;20539;-86
2022/08/18 14:36:17;;;;;;;5.07;1.20;;;33.40;96.70;;;;;;5033788;28;20629;-80
2022/08/18 14:38:45;;;;;;;5.65;1.38;;;33.40;96.70;;;;;;4994541;28;21164;-81
2022/08/18 14:41:18;;;;;;;3.85;0.88;;;33.40;96.70;;;;;;5017691;28;20589;-88
2022/08/18 14:43:55;;;;;;;4.20;1.23;;;33.20;96.70;;;;;;5030973;28;20052;-87
2022/08/18 14:46:46;;;;;;;2.78;1.10;;;33.10;96.70;;;;;;5002189;28;20041;-85
2022/08/18 14:49:22;;;;;;;3.20;1.02;;;32.80;96.70;;;;;;5008768;28;20049;-86
2022/08/18 14:51:57;;;;;;;4.38;0.93;;;32.30;96.70;;;;;;5012887;28;20474;-83
2022/08/18 14:54:26;;;;;;;8.50;1.27;;;32.40;96.70;;;;;;5030793;28;20485;-86
2022/08/18 14:56:57;;;;;;;4.70;1.13;;;32.40;96.70;;;;;;5017413;28;20045;-82
2022/08/18 14:59:29;;;;;;;3.63;1.23;;;32.50;96.70;;;;;;4992383;28;20053;-83
2022/08/18 15:02:06;;;;;;;5.90;0.90;;;33.00;96.70;;;;;;5025855;28;20061;-82
2022/08/18 15:04:41;;;;;;;4.30;1.00;;;33.30;96.70;;;;;;5011094;28;20130;-83
2022/08/18 15:07:24;;;;;;;3.58;0.88;;;33.10;96.70;;;;;;5039843;28;20049;-83
2022/08/18 15:09:54;;;;;;;18.48;2.17;;;33.10;96.70;;;;;;5028686;28;20050;-82
2022/08/18 15:12:43;;;;;;;6.45;1.20;;;33.20;96.70;;;;;;5025275;28;20045;-78
2022/08/18 15:15:13;;;;;;;5.78;1.92;;;33.50;96.70;;;;;;5033638;28;20053;-78
2022/08/18 15:17:46;;;;;;;5.47;1.00;;;33.80;96.70;;;;;;5009312;28;20111;-79
2022/08/18 15:20:21;;;;;;;4.20;1.23;;;33.70;96.70;;;;;;5034623;28;20065;-79
2022/08/18 15:25:56;;;;;;;5.40;1.17;;;33.30;96.70;;;;;;5002925;28;20121;-83
2022/08/18 15:28:26;;;;;;;2.17;0.80;;;32.70;96.70;;;;;;5013698;28;20055;-83
2022/08/18 15:30:56;;;;;;;4.13;1.20;;;31.80;96.70;;;;;;5010014;28;20688;-81
2022/08/18 15:33:45;;;;;;;3.45;0.95;;;31.30;96.70;;;;;;5027939;28;20483;-88
2022/08/18 15:36:20;;;;;;;4.60;0.98;;;30.90;96.70;;;;;;5012830;28;20041;-87
2022/08/18 15:38:56;;;;;;;5.50;1.02;;;30.60;96.70;;;;;;4993184;28;20057;-86
2022/08/18 15:41:33;;;;;;;3.95;0.90;;;30.30;96.70;;;;;;5011742;28;20076;-86
2022/08/18 15:44:13;;;;;;;3.42;0.95;;;30.10;96.70;;;;;;5010309;28;20041;-83
2022/08/18 15:46:43;;;;;;;5.30;1.27;;;30.00;96.70;;;;;;5011255;28;20046;-83
2022/08/18 15:49:19;;;;;;;3.88;0.95;;;29.90;96.70;;;;;;5006483;28;20052;-82
2022/08/18 15:51:49;;;;;;;3.67;0.90;;;29.80;96.70;;;;;;5011341;28;20508;-82
2022/08/18 15:54:19;;;;;;;4.78;0.90;;;29.60;96.70;;;;;;5027249;28;20135;-84
2022/08/18 15:56:51;;;;;;;3.33;0.85;;;29.60;96.70;;;;;;5007204;28;20049;-89
2022/08/18 15:59:26;;;;;;;3.35;1.08;;;29.50;96.70;;;;;;5012616;28;20154;-87
2022/08/18 16:02:09;;;;;;;4.70;0.80;;;29.40;96.70;;;;;;5011088;28;20645;-85
2022/08/18 16:04:47;;;;;;;5.25;1.00;;;29.20;96.70;;;;;;5021250;28;20069;-85
2022/08/18 16:07:16;;;;;;;4.03;0.80;;;29.10;96.70;;;;;;5020137;28;20144;-83
2022/08/18 16:10:06;;;;;;;1.75;0.70;;;29.70;96.70;;;;;;5011279;28;20073;-85
2022/08/18 16:12:34;;;;;;;3.50;0.95;;;30.60;96.70;;;;;;4996778;28;20093;-85
2022/08/18 16:15:24;;;;;;;4.55;1.00;;;31.60;96.70;;;;;;5029629;28;20080;-84
2022/08/18 16:17:55;;;;;;;5.10;0.88;;;32.40;96.70;;;;;;5012533;28;20129;-83
2022/08/18 16:20:23;;;;;;;3.38;0.85;;;32.40;96.70;;;;;;5008388;28;20053;-84
2022/08/18 16:22:52;;;;;;;16.90;1.52;;;33.50;96.70;;;;;;5012735;28;20688;-82
2022/08/18 16:25:21;;;;;;;4.32;0.85;;;34.40;96.70;;;;;;5015725;28;20124;-84
2022/08/18 16:27:52;;;;;;;4.75;0.90;;;33.80;96.70;;;;;;5021007;28;20037;-82
2022/08/18 16:30:23;;;;;;;4.05;1.00;;;33.00;96.70;;;;;;5008618;28;20041;-82
2022/08/18 16:32:52;;;;;;;4.72;1.00;;;32.10;96.70;;;;;;5029331;28;20101;-86
2022/08/18 16:35:22;;;;;;;6.10;1.55;;;31.20;96.70;;;;;;5027494;28;20141;-85
2022/08/18 16:37:51;;;;;;;5.70;2.45;;;30.70;96.70;;;;;;5027061;28;20048;-80
2022/08/18 16:40:20;;;;;;;3.63;1.50;;;30.40;96.70;;;;;;5009731;28;20049;-84
2022/08/18 16:42:54;;;;;;;3.45;1.17;;;30.20;96.70;;;;;;5014008;28;20045;-84
2022/08/18 16:45:22;;;;;;;4.13;1.15;;;30.00;96.70;;;;;;4993672;28;20550;-85
2022/08/18 16:47:52;;;;;;;3.90;1.05;;;29.90;96.70;;;;;;5010826;28;20148;-87
2022/08/18 16:50:24;;;;;;;3.53;1.02;;;29.70;96.70;;;;;;5027815;28;20046;-84
2022/08/18 16:52:52;;;;;;;4.45;1.10;;;29.60;96.70;;;;;;4991105;28;20042;-86
2022/08/18 16:55:21;;;;;;;4.50;0.98;;;29.50;96.70;;;;;;5016380;28;20041;-82
2022/08/18 17:06:18;;;;;;;9.90;1.80;;;28.60;96.70;;;;;;5027064;28;20042;-87
2022/08/18 17:08:47;;;;;;;16.40;3.90;;;28.50;96.70;;;;;;5006084;28;20050;-83
2022/08/18 17:11:18;;;;;;;15.40;3.78;;;28.20;96.70;;;;;;5010493;28;20057;-83
2022/08/18 17:13:51;;;;;;;13.05;3.78;;;27.60;96.70;;;;;;4972817;28;20068;-83
2022/08/18 17:16:21;;;;;;;7.68;2.63;;;26.80;96.70;;;;;;5001199;28;20657;-84
2022/08/18 17:18:49;;;;;;;5.07;1.85;;;26.50;96.70;;;;;;5008125;28;20913;-85
2022/08/18 17:21:25;;;;;;;4.57;1.60;;;26.30;96.70;;;;;;4998228;28;20054;-85
2022/08/18 17:23:54;;;;;;;6.93;1.50;;;26.30;96.70;;;;;;5009611;28;20093;-86
2022/08/18 17:26:32;;;;;;;6.00;1.45;;;26.40;96.70;;;;;;5005600;28;20041;-84
2022/08/18 17:45:14;;;;;;;5.07;1.58;;;26.70;96.70;;;;;;5071320;28;20882;-79
2022/08/18 17:47:55;;;;;;;5.63;2.00;;;26.60;96.70;;;;;;5062705;28;20124;-79
2022/08/18 17:53:14;;;;;;;6.35;2.03;;;26.30;96.70;;;;;;5073166;28;20041;-78
2022/08/18 17:55:46;;;;;;;3.05;1.33;;;26.40;96.70;;;;;;5058020;28;20040;-80
2022/08/18 17:58:24;;;;;;;4.40;1.40;;;26.40;96.70;;;;;;5061985;28;20045;-80
2022/08/18 18:00:54;;;;;;;3.80;1.48;;;26.40;96.70;;;;;;5056726;28;20048;-78
2022/08/18 18:03:22;;;;;;;9.10;1.90;;;26.20;96.70;;;;;;5055500;28;20462;-80
2022/08/18 18:05:58;;;;;;;6.90;1.75;;;26.20;96.70;;;;;;5055141;28;20136;-81
2022/08/18 18:08:48;;;;;;;4.40;1.52;;;26.20;96.70;;;;;;5076292;28;20047;-79
2022/08/18 18:11:16;;;;;;;6.80;2.00;;;26.10;96.70;;;;;;5059509;28;20040;-78
2022/08/18 18:13:45;;;;;;;4.63;1.55;;;26.00;96.70;;;;;;5061961;28;20056;-77
2022/08/18 18:16:33;;;;;;;7.20;2.10;;;26.10;96.70;;;;;;5044070;28;20099;-80
2022/08/18 18:19:04;;;;;;;5.10;1.50;;;26.10;96.70;;;;;;5056496;28;20049;-78
2022/08/18 18:21:34;;;;;;;5.25;1.45;;;26.10;96.70;;;;;;5060212;28;20440;-80
2022/08/18 18:24:29;;;;;;;4.88;1.83;;;26.10;96.70;;;;;;5060280;28;20056;-81
2022/08/18 18:26:57;;;;;;;4.80;1.60;;;26.20;96.70;;;;;;5046298;28;20045;-81
2022/08/18 18:29:29;;;;;;;7.22;1.80;;;26.20;96.70;;;;;;5062025;28;20072;-78
2022/08/18 18:32:06;;;;;;;3.53;1.63;;;26.10;96.70;;;;;;5053405;28;20692;-82
2022/08/18 18:34:39;;;;;;;7.80;1.98;;;26.10;96.70;;;;;;5055095;28;20107;-82
2022/08/18 18:37:23;;;;;;;6.70;2.08;;;25.90;96.70;;;;;;5061096;28;20068;-80
2022/08/18 18:39:57;;;;;;;7.95;2.53;;;25.80;96.70;;;;;;5081798;28;20564;-79
2022/08/18 18:42:32;;;;;;;7.68;2.38;;;25.80;96.70;;;;;;5063875;28;20520;-81
2022/08/18 18:45:26;;;;;;;10.95;3.38;;;25.80;96.70;;;;;;5042368;28;20059;-83